sensor_id;sensor_type;location;lat;lon;timestamp;P1;durP1;ratioP1;P2;durP2;ratioP2
37299;SDS011;23184;51.902;12.836;2024-03-02T00:02:23;63.55;;;29.17;;
37299;SDS011;23184;51.902;12.836;2024-03-02T00:04:49;56.90;;;29.15;;
37299;SDS011;23184;51.902;12.836;2024-03-02T00:07:14;62.08;;;28.75;;
37299;SDS011;23184;51.902;12.836;2024-03-02T00:09:40;63.95;;;30.98;;
37299;SDS011;23184;51.902;12.836;2024-03-02T00:12:06;67.47;;;30.05;;
37299;SDS011;23184;51.902;12.836;2024-03-02T00:14:32;58.88;;;29.05;;
37299;SDS011;23184;51.902;12.836;2024-03-02T00:16:57;61.25;;;29.20;;
37299;SDS011;23184;51.902;12.836;2024-03-02T00:19:24;59.83;;;29.85;;
37299;SDS011;23184;51.902;12.836;2024-03-02T00:21:50;73.80;;;31.65;;
37299;SDS011;23184;51.902;12.836;2024-03-02T00:24:20;68.95;;;30.45;;
37299;SDS011;23184;51.902;12.836;2024-03-02T00:26:50;64.93;;;30.15;;
37299;SDS011;23184;51.902;12.836;2024-03-02T00:29:16;65.07;;;28.60;;
37299;SDS011;23184;51.902;12.836;2024-03-02T00:31:44;68.72;;;31.20;;
37299;SDS011;23184;51.902;12.836;2024-03-02T00:34:09;67.88;;;29.83;;
37299;SDS011;23184;51.902;12.836;2024-03-02T00:36:41;75.63;;;33.10;;
37299;SDS011;23184;51.902;12.836;2024-03-02T00:39:06;72.63;;;32.50;;
37299;SDS011;23184;51.902;12.836;2024-03-02T00:41:32;69.07;;;30.48;;
37299;SDS011;23184;51.902;12.836;2024-03-02T00:43:59;76.28;;;31.80;;
37299;SDS011;23184;51.902;12.836;2024-03-02T00:46:33;74.65;;;29.52;;
37299;SDS011;23184;51.902;12.836;2024-03-02T00:49:03;64.30;;;30.88;;
37299;SDS011;23184;51.902;12.836;2024-03-02T00:51:31;67.88;;;30.70;;
37299;SDS011;23184;51.902;12.836;2024-03-02T00:54:01;61.47;;;29.35;;
37299;SDS011;23184;51.902;12.836;2024-03-02T00:56:29;60.10;;;28.27;;
37299;SDS011;23184;51.902;12.836;2024-03-02T00:58:55;67.10;;;29.80;;
37299;SDS011;23184;51.902;12.836;2024-03-02T01:01:21;64.80;;;31.02;;
37299;SDS011;23184;51.902;12.836;2024-03-02T01:03:47;60.75;;;30.13;;
37299;SDS011;23184;51.902;12.836;2024-03-02T01:06:13;70.47;;;32.60;;
37299;SDS011;23184;51.902;12.836;2024-03-02T01:08:39;64.93;;;29.95;;
37299;SDS011;23184;51.902;12.836;2024-03-02T01:11:05;68.80;;;29.48;;
37299;SDS011;23184;51.902;12.836;2024-03-02T01:13:31;68.75;;;30.52;;
37299;SDS011;23184;51.902;12.836;2024-03-02T01:15:56;68.47;;;30.52;;
37299;SDS011;23184;51.902;12.836;2024-03-02T01:18:22;53.08;;;28.13;;
37299;SDS011;23184;51.902;12.836;2024-03-02T01:20:48;55.65;;;28.13;;
37299;SDS011;23184;51.902;12.836;2024-03-02T01:23:16;63.33;;;29.13;;
37299;SDS011;23184;51.902;12.836;2024-03-02T01:25:45;62.10;;;30.27;;
37299;SDS011;23184;51.902;12.836;2024-03-02T01:28:12;64.15;;;29.42;;
37299;SDS011;23184;51.902;12.836;2024-03-02T01:30:38;56.85;;;26.95;;
37299;SDS011;23184;51.902;12.836;2024-03-02T01:33:03;58.08;;;26.95;;
37299;SDS011;23184;51.902;12.836;2024-03-02T01:35:30;59.90;;;26.35;;
37299;SDS011;23184;51.902;12.836;2024-03-02T01:37:56;62.50;;;30.02;;
37299;SDS011;23184;51.902;12.836;2024-03-02T01:40:21;63.97;;;28.60;;
37299;SDS011;23184;51.902;12.836;2024-03-02T01:42:48;56.05;;;27.60;;
37299;SDS011;23184;51.902;12.836;2024-03-02T01:45:14;70.35;;;30.15;;
37299;SDS011;23184;51.902;12.836;2024-03-02T01:47:39;60.83;;;28.02;;
37299;SDS011;23184;51.902;12.836;2024-03-02T01:50:05;58.65;;;27.60;;
37299;SDS011;23184;51.902;12.836;2024-03-02T01:52:32;64.63;;;31.45;;
37299;SDS011;23184;51.902;12.836;2024-03-02T01:54:57;70.72;;;30.27;;
37299;SDS011;23184;51.902;12.836;2024-03-02T01:57:23;61.28;;;28.08;;
37299;SDS011;23184;51.902;12.836;2024-03-02T01:59:48;56.08;;;26.27;;
37299;SDS011;23184;51.902;12.836;2024-03-02T02:02:15;69.55;;;30.08;;
37299;SDS011;23184;51.902;12.836;2024-03-02T02:04:41;57.70;;;27.50;;
37299;SDS011;23184;51.902;12.836;2024-03-02T02:07:06;61.80;;;27.40;;
37299;SDS011;23184;51.902;12.836;2024-03-02T02:09:32;65.38;;;29.92;;
37299;SDS011;23184;51.902;12.836;2024-03-02T02:11:57;67.70;;;31.38;;
37299;SDS011;23184;51.902;12.836;2024-03-02T02:14:23;76.05;;;35.55;;
37299;SDS011;23184;51.902;12.836;2024-03-02T02:16:49;79.00;;;35.55;;
37299;SDS011;23184;51.902;12.836;2024-03-02T02:19:14;90.35;;;39.10;;
37299;SDS011;23184;51.902;12.836;2024-03-02T02:21:42;86.90;;;37.75;;
37299;SDS011;23184;51.902;12.836;2024-03-02T02:24:08;85.53;;;39.55;;
37299;SDS011;23184;51.902;12.836;2024-03-02T02:26:34;81.53;;;36.20;;
37299;SDS011;23184;51.902;12.836;2024-03-02T02:29:00;81.03;;;38.13;;
37299;SDS011;23184;51.902;12.836;2024-03-02T02:31:25;93.28;;;39.42;;
37299;SDS011;23184;51.902;12.836;2024-03-02T02:33:51;89.53;;;39.10;;
37299;SDS011;23184;51.902;12.836;2024-03-02T02:36:16;91.63;;;40.30;;
37299;SDS011;23184;51.902;12.836;2024-03-02T02:38:43;79.90;;;36.70;;
37299;SDS011;23184;51.902;12.836;2024-03-02T02:41:11;91.28;;;41.03;;
37299;SDS011;23184;51.902;12.836;2024-03-02T02:46:40;87.03;;;38.70;;
37299;SDS011;23184;51.902;12.836;2024-03-02T02:49:06;88.00;;;38.53;;
37299;SDS011;23184;51.902;12.836;2024-03-02T02:51:31;81.57;;;39.15;;
37299;SDS011;23184;51.902;12.836;2024-03-02T02:53:57;85.25;;;38.47;;
37299;SDS011;23184;51.902;12.836;2024-03-02T02:56:22;81.00;;;38.72;;
37299;SDS011;23184;51.902;12.836;2024-03-02T02:58:48;90.68;;;40.45;;
37299;SDS011;23184;51.902;12.836;2024-03-02T03:01:14;88.07;;;39.03;;
37299;SDS011;23184;51.902;12.836;2024-03-02T03:03:42;92.15;;;39.25;;
37299;SDS011;23184;51.902;12.836;2024-03-02T03:06:08;103.13;;;40.95;;
37299;SDS011;23184;51.902;12.836;2024-03-02T03:08:34;81.82;;;37.80;;
37299;SDS011;23184;51.902;12.836;2024-03-02T03:11:00;84.47;;;39.45;;
37299;SDS011;23184;51.902;12.836;2024-03-02T03:13:25;85.93;;;39.20;;
37299;SDS011;23184;51.902;12.836;2024-03-02T03:15:51;88.30;;;38.13;;
37299;SDS011;23184;51.902;12.836;2024-03-02T03:18:16;97.25;;;41.47;;
37299;SDS011;23184;51.902;12.836;2024-03-02T03:20:42;91.93;;;39.30;;
37299;SDS011;23184;51.902;12.836;2024-03-02T03:23:07;84.68;;;37.72;;
37299;SDS011;23184;51.902;12.836;2024-03-02T03:25:33;89.70;;;39.58;;
37299;SDS011;23184;51.902;12.836;2024-03-02T03:27:59;95.47;;;40.40;;
37299;SDS011;23184;51.902;12.836;2024-03-02T03:30:24;96.22;;;40.15;;
37299;SDS011;23184;51.902;12.836;2024-03-02T03:32:50;91.18;;;41.08;;
37299;SDS011;23184;51.902;12.836;2024-03-02T03:35:15;87.75;;;38.85;;
37299;SDS011;23184;51.902;12.836;2024-03-02T03:37:41;93.22;;;39.42;;
37299;SDS011;23184;51.902;12.836;2024-03-02T03:40:06;86.20;;;37.60;;
37299;SDS011;23184;51.902;12.836;2024-03-02T03:42:35;95.10;;;39.92;;
37299;SDS011;23184;51.902;12.836;2024-03-02T03:45:00;83.00;;;39.33;;
37299;SDS011;23184;51.902;12.836;2024-03-02T03:47:26;89.28;;;39.90;;
37299;SDS011;23184;51.902;12.836;2024-03-02T03:49:51;84.22;;;37.70;;
37299;SDS011;23184;51.902;12.836;2024-03-02T03:52:17;91.50;;;37.90;;
37299;SDS011;23184;51.902;12.836;2024-03-02T03:54:42;91.47;;;39.65;;
37299;SDS011;23184;51.902;12.836;2024-03-02T03:57:09;86.75;;;37.25;;
37299;SDS011;23184;51.902;12.836;2024-03-02T03:59:35;95.13;;;38.53;;
37299;SDS011;23184;51.902;12.836;2024-03-02T04:02:02;84.60;;;37.40;;
37299;SDS011;23184;51.902;12.836;2024-03-02T04:04:28;88.13;;;36.80;;
37299;SDS011;23184;51.902;12.836;2024-03-02T04:06:53;89.93;;;38.72;;
37299;SDS011;23184;51.902;12.836;2024-03-02T04:09:19;85.25;;;38.72;;
37299;SDS011;23184;51.902;12.836;2024-03-02T04:11:44;95.05;;;41.22;;
37299;SDS011;23184;51.902;12.836;2024-03-02T04:14:10;91.10;;;38.67;;
37299;SDS011;23184;51.902;12.836;2024-03-02T04:16:37;95.82;;;39.60;;
37299;SDS011;23184;51.902;12.836;2024-03-02T04:19:03;90.60;;;40.05;;
37299;SDS011;23184;51.902;12.836;2024-03-02T04:21:28;97.55;;;41.08;;
37299;SDS011;23184;51.902;12.836;2024-03-02T04:23:54;93.25;;;41.38;;
37299;SDS011;23184;51.902;12.836;2024-03-02T04:26:23;98.07;;;41.78;;
37299;SDS011;23184;51.902;12.836;2024-03-02T04:28:50;103.97;;;41.83;;
37299;SDS011;23184;51.902;12.836;2024-03-02T04:31:16;96.28;;;40.60;;
37299;SDS011;23184;51.902;12.836;2024-03-02T04:33:41;102.95;;;41.03;;
37299;SDS011;23184;51.902;12.836;2024-03-02T04:36:07;92.15;;;38.70;;
37299;SDS011;23184;51.902;12.836;2024-03-02T04:38:34;100.22;;;43.38;;
37299;SDS011;23184;51.902;12.836;2024-03-02T04:41:00;110.63;;;43.50;;
37299;SDS011;23184;51.902;12.836;2024-03-02T04:43:25;104.82;;;42.10;;
37299;SDS011;23184;51.902;12.836;2024-03-02T04:45:51;100.90;;;40.10;;
37299;SDS011;23184;51.902;12.836;2024-03-02T04:48:16;104.75;;;43.55;;
37299;SDS011;23184;51.902;12.836;2024-03-02T04:50:42;100.60;;;42.05;;
37299;SDS011;23184;51.902;12.836;2024-03-02T04:53:07;93.13;;;40.88;;
37299;SDS011;23184;51.902;12.836;2024-03-02T04:55:33;101.10;;;40.33;;
37299;SDS011;23184;51.902;12.836;2024-03-02T04:58:04;102.63;;;40.47;;
37299;SDS011;23184;51.902;12.836;2024-03-02T05:00:30;98.47;;;39.58;;
37299;SDS011;23184;51.902;12.836;2024-03-02T05:02:55;98.15;;;40.13;;
37299;SDS011;23184;51.902;12.836;2024-03-02T05:05:21;96.80;;;40.83;;
37299;SDS011;23184;51.902;12.836;2024-03-02T05:07:46;93.25;;;41.15;;
37299;SDS011;23184;51.902;12.836;2024-03-02T05:10:12;92.75;;;39.47;;
37299;SDS011;23184;51.902;12.836;2024-03-02T05:12:37;88.95;;;40.72;;
37299;SDS011;23184;51.902;12.836;2024-03-02T05:15:12;90.32;;;39.10;;
37299;SDS011;23184;51.902;12.836;2024-03-02T05:17:39;91.90;;;39.35;;
37299;SDS011;23184;51.902;12.836;2024-03-02T05:20:05;93.45;;;41.03;;
37299;SDS011;23184;51.902;12.836;2024-03-02T05:22:33;100.05;;;40.25;;
37299;SDS011;23184;51.902;12.836;2024-03-02T05:24:58;97.05;;;40.00;;
37299;SDS011;23184;51.902;12.836;2024-03-02T05:27:25;101.18;;;40.30;;
37299;SDS011;23184;51.902;12.836;2024-03-02T05:29:51;92.75;;;37.78;;
37299;SDS011;23184;51.902;12.836;2024-03-02T05:32:17;97.25;;;40.22;;
37299;SDS011;23184;51.902;12.836;2024-03-02T05:34:42;86.03;;;38.58;;
37299;SDS011;23184;51.902;12.836;2024-03-02T05:37:07;91.05;;;39.60;;
37299;SDS011;23184;51.902;12.836;2024-03-02T05:39:33;85.03;;;39.80;;
37299;SDS011;23184;51.902;12.836;2024-03-02T05:41:59;90.10;;;38.78;;
37299;SDS011;23184;51.902;12.836;2024-03-02T05:44:24;88.93;;;38.47;;
37299;SDS011;23184;51.902;12.836;2024-03-02T05:46:49;94.20;;;40.92;;
37299;SDS011;23184;51.902;12.836;2024-03-02T05:49:15;81.82;;;37.15;;
37299;SDS011;23184;51.902;12.836;2024-03-02T05:51:41;85.40;;;37.03;;
37299;SDS011;23184;51.902;12.836;2024-03-02T05:54:06;92.97;;;38.60;;
37299;SDS011;23184;51.902;12.836;2024-03-02T05:56:32;80.00;;;36.95;;
37299;SDS011;23184;51.902;12.836;2024-03-02T05:58:57;81.50;;;36.42;;
37299;SDS011;23184;51.902;12.836;2024-03-02T06:01:37;89.45;;;37.95;;
37299;SDS011;23184;51.902;12.836;2024-03-02T06:04:09;82.93;;;36.50;;
37299;SDS011;23184;51.902;12.836;2024-03-02T06:06:38;82.38;;;37.13;;
37299;SDS011;23184;51.902;12.836;2024-03-02T06:09:04;88.35;;;38.03;;
37299;SDS011;23184;51.902;12.836;2024-03-02T06:11:32;82.35;;;37.65;;
37299;SDS011;23184;51.902;12.836;2024-03-02T06:13:58;85.95;;;36.85;;
37299;SDS011;23184;51.902;12.836;2024-03-02T06:16:24;91.43;;;39.97;;
37299;SDS011;23184;51.902;12.836;2024-03-02T06:18:49;81.82;;;36.47;;
37299;SDS011;23184;51.902;12.836;2024-03-02T06:21:15;83.60;;;37.35;;
37299;SDS011;23184;51.902;12.836;2024-03-02T06:23:40;84.50;;;37.80;;
37299;SDS011;23184;51.902;12.836;2024-03-02T06:26:06;77.57;;;35.75;;
37299;SDS011;23184;51.902;12.836;2024-03-02T06:28:31;76.82;;;35.58;;
37299;SDS011;23184;51.902;12.836;2024-03-02T06:30:57;78.97;;;34.72;;
37299;SDS011;23184;51.902;12.836;2024-03-02T06:33:22;75.32;;;35.75;;
37299;SDS011;23184;51.902;12.836;2024-03-02T06:35:48;87.03;;;36.22;;
37299;SDS011;23184;51.902;12.836;2024-03-02T06:38:14;91.43;;;42.47;;
37299;SDS011;23184;51.902;12.836;2024-03-02T06:40:39;92.90;;;40.45;;
37299;SDS011;23184;51.902;12.836;2024-03-02T06:43:05;111.65;;;50.92;;
37299;SDS011;23184;51.902;12.836;2024-03-02T06:45:31;98.20;;;44.95;;
37299;SDS011;23184;51.902;12.836;2024-03-02T06:47:58;83.03;;;37.90;;
37299;SDS011;23184;51.902;12.836;2024-03-02T06:50:24;84.75;;;37.72;;
37299;SDS011;23184;51.902;12.836;2024-03-02T06:52:49;80.82;;;41.88;;
37299;SDS011;23184;51.902;12.836;2024-03-02T06:55:15;67.47;;;34.25;;
37299;SDS011;23184;51.902;12.836;2024-03-02T06:57:40;63.55;;;32.55;;
37299;SDS011;23184;51.902;12.836;2024-03-02T07:00:06;73.13;;;38.78;;
37299;SDS011;23184;51.902;12.836;2024-03-02T07:02:33;69.10;;;32.15;;
37299;SDS011;23184;51.902;12.836;2024-03-02T07:04:59;62.03;;;29.15;;
37299;SDS011;23184;51.902;12.836;2024-03-02T07:07:25;63.50;;;30.77;;
37299;SDS011;23184;51.902;12.836;2024-03-02T07:09:50;71.80;;;34.60;;
37299;SDS011;23184;51.902;12.836;2024-03-02T07:12:16;62.80;;;31.00;;
37299;SDS011;23184;51.902;12.836;2024-03-02T07:14:41;63.17;;;29.55;;
37299;SDS011;23184;51.902;12.836;2024-03-02T07:17:36;54.72;;;26.38;;
37299;SDS011;23184;51.902;12.836;2024-03-02T07:20:02;58.83;;;27.48;;
37299;SDS011;23184;51.902;12.836;2024-03-02T07:22:28;52.25;;;28.70;;
37299;SDS011;23184;51.902;12.836;2024-03-02T07:24:54;52.28;;;26.85;;
37299;SDS011;23184;51.902;12.836;2024-03-02T07:27:20;50.63;;;26.60;;
37299;SDS011;23184;51.902;12.836;2024-03-02T07:29:46;48.08;;;24.30;;
37299;SDS011;23184;51.902;12.836;2024-03-02T07:32:11;47.83;;;25.83;;
37299;SDS011;23184;51.902;12.836;2024-03-02T07:34:37;51.95;;;25.52;;
37299;SDS011;23184;51.902;12.836;2024-03-02T07:37:02;49.38;;;25.65;;
37299;SDS011;23184;51.902;12.836;2024-03-02T07:39:28;56.58;;;27.25;;
37299;SDS011;23184;51.902;12.836;2024-03-02T07:41:54;53.47;;;26.17;;
37299;SDS011;23184;51.902;12.836;2024-03-02T07:44:20;50.75;;;25.50;;
37299;SDS011;23184;51.902;12.836;2024-03-02T07:46:46;49.78;;;24.63;;
37299;SDS011;23184;51.902;12.836;2024-03-02T07:49:12;52.78;;;26.50;;
37299;SDS011;23184;51.902;12.836;2024-03-02T07:51:39;52.95;;;25.35;;
37299;SDS011;23184;51.902;12.836;2024-03-02T07:54:04;52.45;;;26.48;;
37299;SDS011;23184;51.902;12.836;2024-03-02T07:56:30;53.38;;;26.23;;
37299;SDS011;23184;51.902;12.836;2024-03-02T07:58:55;49.90;;;26.58;;
37299;SDS011;23184;51.902;12.836;2024-03-02T08:01:25;51.88;;;25.58;;
37299;SDS011;23184;51.902;12.836;2024-03-02T08:03:55;53.92;;;26.13;;
37299;SDS011;23184;51.902;12.836;2024-03-02T08:06:23;49.05;;;24.30;;
37299;SDS011;23184;51.902;12.836;2024-03-02T08:08:55;48.30;;;25.23;;
37299;SDS011;23184;51.902;12.836;2024-03-02T08:11:21;48.13;;;24.88;;
37299;SDS011;23184;51.902;12.836;2024-03-02T08:13:48;47.08;;;24.85;;
37299;SDS011;23184;51.902;12.836;2024-03-02T08:16:16;48.55;;;25.67;;
37299;SDS011;23184;51.902;12.836;2024-03-02T08:18:46;47.50;;;24.67;;
37299;SDS011;23184;51.902;12.836;2024-03-02T08:21:12;46.25;;;23.73;;
37299;SDS011;23184;51.902;12.836;2024-03-02T08:23:38;45.42;;;24.73;;
37299;SDS011;23184;51.902;12.836;2024-03-02T08:26:05;52.72;;;24.92;;
37299;SDS011;23184;51.902;12.836;2024-03-02T08:28:31;53.42;;;25.05;;
37299;SDS011;23184;51.902;12.836;2024-03-02T08:30:57;44.53;;;22.80;;
37299;SDS011;23184;51.902;12.836;2024-03-02T08:33:23;47.85;;;23.73;;
37299;SDS011;23184;51.902;12.836;2024-03-02T08:35:49;48.83;;;23.65;;
37299;SDS011;23184;51.902;12.836;2024-03-02T08:38:14;44.42;;;23.40;;
37299;SDS011;23184;51.902;12.836;2024-03-02T08:40:40;48.00;;;24.65;;
37299;SDS011;23184;51.902;12.836;2024-03-02T08:43:06;44.85;;;23.52;;
37299;SDS011;23184;51.902;12.836;2024-03-02T08:45:31;47.28;;;25.13;;
37299;SDS011;23184;51.902;12.836;2024-03-02T08:47:57;40.65;;;21.83;;
37299;SDS011;23184;51.902;12.836;2024-03-02T08:50:23;41.83;;;22.98;;
37299;SDS011;23184;51.902;12.836;2024-03-02T08:52:48;46.58;;;22.02;;
37299;SDS011;23184;51.902;12.836;2024-03-02T08:55:14;45.58;;;23.10;;
37299;SDS011;23184;51.902;12.836;2024-03-02T08:57:39;45.80;;;22.17;;
37299;SDS011;23184;51.902;12.836;2024-03-02T09:00:06;43.58;;;22.38;;
37299;SDS011;23184;51.902;12.836;2024-03-02T09:02:33;41.40;;;22.98;;
37299;SDS011;23184;51.902;12.836;2024-03-02T09:04:59;45.35;;;23.58;;
37299;SDS011;23184;51.902;12.836;2024-03-02T09:07:24;46.08;;;23.00;;
37299;SDS011;23184;51.902;12.836;2024-03-02T09:09:50;46.42;;;23.38;;
37299;SDS011;23184;51.902;12.836;2024-03-02T09:12:15;42.90;;;21.50;;
37299;SDS011;23184;51.902;12.836;2024-03-02T09:14:41;44.70;;;24.02;;
37299;SDS011;23184;51.902;12.836;2024-03-02T09:17:06;44.78;;;22.35;;
37299;SDS011;23184;51.902;12.836;2024-03-02T09:19:33;47.38;;;23.05;;
37299;SDS011;23184;51.902;12.836;2024-03-02T09:21:58;46.25;;;22.55;;
37299;SDS011;23184;51.902;12.836;2024-03-02T09:24:24;41.47;;;22.08;;
37299;SDS011;23184;51.902;12.836;2024-03-02T09:26:49;39.25;;;21.45;;
37299;SDS011;23184;51.902;12.836;2024-03-02T09:29:15;43.30;;;21.90;;
37299;SDS011;23184;51.902;12.836;2024-03-02T09:31:40;44.22;;;20.80;;
37299;SDS011;23184;51.902;12.836;2024-03-02T09:34:06;42.03;;;22.17;;
37299;SDS011;23184;51.902;12.836;2024-03-02T09:36:32;40.20;;;21.02;;
37299;SDS011;23184;51.902;12.836;2024-03-02T09:38:58;38.53;;;21.38;;
37299;SDS011;23184;51.902;12.836;2024-03-02T09:41:23;41.20;;;20.90;;
37299;SDS011;23184;51.902;12.836;2024-03-02T09:43:49;41.50;;;21.58;;
37299;SDS011;23184;51.902;12.836;2024-03-02T09:46:16;41.95;;;22.58;;
37299;SDS011;23184;51.902;12.836;2024-03-02T09:48:41;38.10;;;20.77;;
37299;SDS011;23184;51.902;12.836;2024-03-02T09:51:09;38.03;;;19.90;;
37299;SDS011;23184;51.902;12.836;2024-03-02T09:53:36;37.35;;;19.58;;
37299;SDS011;23184;51.902;12.836;2024-03-02T09:56:02;39.17;;;21.05;;
37299;SDS011;23184;51.902;12.836;2024-03-02T09:58:27;37.00;;;20.10;;
37299;SDS011;23184;51.902;12.836;2024-03-02T10:00:53;36.70;;;20.55;;
37299;SDS011;23184;51.902;12.836;2024-03-02T10:03:19;36.13;;;20.77;;
37299;SDS011;23184;51.902;12.836;2024-03-02T10:05:46;34.60;;;19.63;;
37299;SDS011;23184;51.902;12.836;2024-03-02T10:08:11;38.38;;;20.45;;
37299;SDS011;23184;51.902;12.836;2024-03-02T10:10:37;34.90;;;20.52;;
37299;SDS011;23184;51.902;12.836;2024-03-02T10:13:08;35.83;;;20.35;;
37299;SDS011;23184;51.902;12.836;2024-03-02T10:15:35;31.88;;;19.33;;
37299;SDS011;23184;51.902;12.836;2024-03-02T10:18:02;32.72;;;19.52;;
37299;SDS011;23184;51.902;12.836;2024-03-02T10:20:33;37.15;;;22.90;;
37299;SDS011;23184;51.902;12.836;2024-03-02T10:23:12;33.40;;;21.33;;
37299;SDS011;23184;51.902;12.836;2024-03-02T10:25:39;39.50;;;23.52;;
37299;SDS011;23184;51.902;12.836;2024-03-02T10:28:05;38.95;;;23.65;;
37299;SDS011;23184;51.902;12.836;2024-03-02T10:30:31;33.80;;;21.70;;
37299;SDS011;23184;51.902;12.836;2024-03-02T10:33:01;40.45;;;25.38;;
37299;SDS011;23184;51.902;12.836;2024-03-02T10:35:27;38.70;;;22.83;;
37299;SDS011;23184;51.902;12.836;2024-03-02T10:37:53;38.47;;;22.77;;
37299;SDS011;23184;51.902;12.836;2024-03-02T10:40:22;40.33;;;23.92;;
37299;SDS011;23184;51.902;12.836;2024-03-02T10:42:48;33.15;;;22.67;;
37299;SDS011;23184;51.902;12.836;2024-03-02T10:45:15;41.70;;;25.67;;
37299;SDS011;23184;51.902;12.836;2024-03-02T10:47:44;39.38;;;23.05;;
37299;SDS011;23184;51.902;12.836;2024-03-02T10:50:12;35.22;;;22.50;;
37299;SDS011;23184;51.902;12.836;2024-03-02T10:52:38;37.00;;;22.73;;
37299;SDS011;23184;51.902;12.836;2024-03-02T10:55:04;36.53;;;22.20;;
37299;SDS011;23184;51.902;12.836;2024-03-02T10:57:37;40.72;;;23.55;;
37299;SDS011;23184;51.902;12.836;2024-03-02T11:00:18;37.78;;;22.10;;
37299;SDS011;23184;51.902;12.836;2024-03-02T11:02:56;33.22;;;21.10;;
37299;SDS011;23184;51.902;12.836;2024-03-02T11:05:29;39.25;;;25.08;;
37299;SDS011;23184;51.902;12.836;2024-03-02T11:08:00;39.53;;;22.23;;
37299;SDS011;23184;51.902;12.836;2024-03-02T11:10:29;40.33;;;22.70;;
37299;SDS011;23184;51.902;12.836;2024-03-02T11:13:16;36.17;;;22.35;;
37299;SDS011;23184;51.902;12.836;2024-03-02T11:15:49;40.33;;;22.33;;
37299;SDS011;23184;51.902;12.836;2024-03-02T11:18:20;37.83;;;21.58;;
37299;SDS011;23184;51.902;12.836;2024-03-02T11:20:45;36.95;;;20.25;;
37299;SDS011;23184;51.902;12.836;2024-03-02T11:23:11;35.47;;;19.27;;
37299;SDS011;23184;51.902;12.836;2024-03-02T11:25:37;37.83;;;23.10;;
37299;SDS011;23184;51.902;12.836;2024-03-02T11:28:05;38.88;;;22.88;;
37299;SDS011;23184;51.902;12.836;2024-03-02T11:32:56;35.65;;;21.42;;
37299;SDS011;23184;51.902;12.836;2024-03-02T11:35:24;38.40;;;21.58;;
37299;SDS011;23184;51.902;12.836;2024-03-02T11:37:50;37.50;;;21.42;;
37299;SDS011;23184;51.902;12.836;2024-03-02T11:40:21;36.42;;;20.95;;
37299;SDS011;23184;51.902;12.836;2024-03-02T11:42:47;39.00;;;21.85;;
37299;SDS011;23184;51.902;12.836;2024-03-02T11:45:16;39.83;;;22.08;;
37299;SDS011;23184;51.902;12.836;2024-03-02T11:47:46;35.10;;;20.48;;
37299;SDS011;23184;51.902;12.836;2024-03-02T11:50:15;37.80;;;20.83;;
37299;SDS011;23184;51.902;12.836;2024-03-02T11:52:53;34.65;;;18.98;;
37299;SDS011;23184;51.902;12.836;2024-03-02T11:55:18;32.00;;;19.58;;
37299;SDS011;23184;51.902;12.836;2024-03-02T11:57:45;30.73;;;17.77;;
37299;SDS011;23184;51.902;12.836;2024-03-02T12:00:17;27.98;;;17.23;;
37299;SDS011;23184;51.902;12.836;2024-03-02T12:02:44;31.70;;;19.90;;
37299;SDS011;23184;51.902;12.836;2024-03-02T12:05:14;32.63;;;18.65;;
37299;SDS011;23184;51.902;12.836;2024-03-02T12:07:41;31.10;;;17.20;;
37299;SDS011;23184;51.902;12.836;2024-03-02T12:10:08;28.73;;;18.00;;
37299;SDS011;23184;51.902;12.836;2024-03-02T12:12:34;26.50;;;16.60;;
37299;SDS011;23184;51.902;12.836;2024-03-02T12:14:59;28.20;;;16.40;;
37299;SDS011;23184;51.902;12.836;2024-03-02T12:17:25;27.80;;;16.92;;
37299;SDS011;23184;51.902;12.836;2024-03-02T12:19:51;32.88;;;18.45;;
37299;SDS011;23184;51.902;12.836;2024-03-02T12:22:17;28.25;;;18.08;;
37299;SDS011;23184;51.902;12.836;2024-03-02T12:24:43;25.35;;;15.55;;
37299;SDS011;23184;51.902;12.836;2024-03-02T12:27:13;25.98;;;16.92;;
37299;SDS011;23184;51.902;12.836;2024-03-02T12:29:40;29.58;;;16.10;;
37299;SDS011;23184;51.902;12.836;2024-03-02T12:32:06;32.60;;;17.38;;
37299;SDS011;23184;51.902;12.836;2024-03-02T12:34:32;28.92;;;16.67;;
37299;SDS011;23184;51.902;12.836;2024-03-02T12:36:57;32.17;;;17.90;;
37299;SDS011;23184;51.902;12.836;2024-03-02T12:39:23;27.95;;;16.92;;
37299;SDS011;23184;51.902;12.836;2024-03-02T12:41:49;25.33;;;14.20;;
37299;SDS011;23184;51.902;12.836;2024-03-02T12:44:16;23.95;;;14.15;;
37299;SDS011;23184;51.902;12.836;2024-03-02T12:46:42;20.20;;;12.43;;
37299;SDS011;23184;51.902;12.836;2024-03-02T12:49:08;22.98;;;13.73;;
37299;SDS011;23184;51.902;12.836;2024-03-02T12:51:38;23.65;;;14.57;;
37299;SDS011;23184;51.902;12.836;2024-03-02T12:54:08;24.85;;;14.38;;
37299;SDS011;23184;51.902;12.836;2024-03-02T12:56:34;23.02;;;13.48;;
37299;SDS011;23184;51.902;12.836;2024-03-02T12:59:00;20.48;;;12.50;;
37299;SDS011;23184;51.902;12.836;2024-03-02T13:01:26;19.90;;;12.32;;
37299;SDS011;23184;51.902;12.836;2024-03-02T13:03:52;22.27;;;12.60;;
37299;SDS011;23184;51.902;12.836;2024-03-02T13:06:19;19.83;;;11.57;;
37299;SDS011;23184;51.902;12.836;2024-03-02T13:08:45;17.25;;;11.02;;
37299;SDS011;23184;51.902;12.836;2024-03-02T13:11:11;18.50;;;11.10;;
37299;SDS011;23184;51.902;12.836;2024-03-02T13:13:38;17.52;;;10.30;;
37299;SDS011;23184;51.902;12.836;2024-03-02T13:16:11;19.40;;;11.40;;
37299;SDS011;23184;51.902;12.836;2024-03-02T13:18:40;22.15;;;13.23;;
37299;SDS011;23184;51.902;12.836;2024-03-02T13:21:06;17.00;;;10.80;;
37299;SDS011;23184;51.902;12.836;2024-03-02T13:23:32;23.25;;;11.07;;
37299;SDS011;23184;51.902;12.836;2024-03-02T13:25:58;20.02;;;10.30;;
37299;SDS011;23184;51.902;12.836;2024-03-02T13:28:24;18.63;;;10.98;;
37299;SDS011;23184;51.902;12.836;2024-03-02T13:30:50;17.33;;;10.07;;
37299;SDS011;23184;51.902;12.836;2024-03-02T13:33:16;16.95;;;9.77;;
37299;SDS011;23184;51.902;12.836;2024-03-02T13:35:47;21.13;;;11.75;;
37299;SDS011;23184;51.902;12.836;2024-03-02T13:38:13;24.50;;;12.57;;
37299;SDS011;23184;51.902;12.836;2024-03-02T13:40:38;24.55;;;12.88;;
37299;SDS011;23184;51.902;12.836;2024-03-02T13:43:05;19.63;;;11.70;;
37299;SDS011;23184;51.902;12.836;2024-03-02T13:45:30;16.25;;;9.40;;
37299;SDS011;23184;51.902;12.836;2024-03-02T13:47:56;16.48;;;8.50;;
37299;SDS011;23184;51.902;12.836;2024-03-02T13:50:21;18.02;;;10.43;;
37299;SDS011;23184;51.902;12.836;2024-03-02T13:52:47;18.10;;;10.98;;
37299;SDS011;23184;51.902;12.836;2024-03-02T13:55:12;18.50;;;11.25;;
37299;SDS011;23184;51.902;12.836;2024-03-02T13:57:38;22.48;;;13.65;;
37299;SDS011;23184;51.902;12.836;2024-03-02T14:00:04;21.50;;;13.70;;
37299;SDS011;23184;51.902;12.836;2024-03-02T14:02:35;24.20;;;13.50;;
37299;SDS011;23184;51.902;12.836;2024-03-02T14:05:01;23.65;;;13.88;;
37299;SDS011;23184;51.902;12.836;2024-03-02T14:07:26;18.80;;;11.75;;
37299;SDS011;23184;51.902;12.836;2024-03-02T14:09:51;18.27;;;11.63;;
37299;SDS011;23184;51.902;12.836;2024-03-02T14:12:17;21.42;;;11.77;;